createdAt,value
2023-05-09T00:00:31.016Z,101141.44
2023-05-09T00:02:57.540Z,101136.84
2023-05-09T00:05:23.903Z,101132.28
2023-05-09T00:07:50.336Z,101126.94
2023-05-09T00:10:16.767Z,101120.03
2023-05-09T00:12:43.753Z,101119.88
2023-05-09T00:15:10.226Z,101115.31
2023-05-09T00:17:38.496Z,101117.91
2023-05-09T00:20:12.012Z,101118.56
2023-05-09T00:22:38.429Z,101122.34
2023-05-09T00:25:04.757Z,101124.16
2023-05-09T00:27:31.345Z,101111.72
2023-05-09T00:29:57.941Z,101110.72
2023-05-09T00:32:25.792Z,101110.03
2023-05-09T00:34:52.203Z,101103.13
2023-05-09T00:37:19.317Z,101104.72
2023-05-09T00:39:45.992Z,101094.94
2023-05-09T00:42:12.397Z,101091.47
2023-05-09T00:44:38.871Z,101093.19
2023-05-09T00:47:05.357Z,101087.84
2023-05-09T00:49:31.733Z,101084.09
2023-05-09T00:51:58.134Z,101077.09
2023-05-09T00:54:24.590Z,101074.28
2023-05-09T00:56:50.966Z,101078.00
2023-05-09T00:59:18.140Z,101070.00
2023-05-09T01:01:44.544Z,101075.44
2023-05-09T01:04:10.931Z,101072.66
2023-05-09T01:06:41.156Z,101069.97
2023-05-09T01:09:07.519Z,101064.66
2023-05-09T01:11:33.876Z,101061.94
2023-05-09T01:14:00.616Z,101059.06
2023-05-09T01:16:27.198Z,101055.72
2023-05-09T01:18:53.589Z,101054.09
2023-05-09T01:21:20.006Z,101054.69
2023-05-09T01:23:46.662Z,101048.16
2023-05-09T01:26:13.240Z,101044.13
2023-05-09T01:28:39.667Z,101039.66
2023-05-09T01:31:06.097Z,101042.81
2023-05-09T01:33:32.545Z,101043.53
2023-05-09T01:35:58.914Z,101037.66
2023-05-09T01:38:25.282Z,101034.81
2023-05-09T01:40:51.758Z,101033.56
2023-05-09T01:43:18.858Z,101039.03
2023-05-09T01:45:45.268Z,101035.66
2023-05-09T01:48:11.642Z,101034.66
2023-05-09T01:50:38.011Z,101026.00
2023-05-09T01:53:04.437Z,101022.94
2023-05-09T01:55:30.843Z,101027.31
2023-05-09T01:57:57.284Z,101027.69
2023-05-09T02:00:23.718Z,101021.63
2023-05-09T02:02:50.145Z,101021.59
2023-05-09T02:05:16.810Z,101023.09
2023-05-09T02:07:43.333Z,101032.06
2023-05-09T02:10:09.794Z,101031.34
2023-05-09T02:12:37.075Z,101025.03
2023-05-09T02:15:03.507Z,101027.41
2023-05-09T02:17:30.866Z,101023.47
2023-05-09T02:19:57.354Z,101019.38
2023-05-09T02:22:23.765Z,101014.47
2023-05-09T02:24:51.205Z,101018.63
2023-05-09T02:27:18.010Z,101014.81
2023-05-09T02:29:44.501Z,101009.34
2023-05-09T02:32:11.383Z,101012.09
2023-05-09T02:34:37.897Z,101019.78
2023-05-09T02:37:04.611Z,101023.50
2023-05-09T02:39:31.008Z,101019.78
2023-05-09T02:41:57.483Z,101020.88
2023-05-09T02:44:25.721Z,101018.34
2023-05-09T02:46:52.075Z,101015.75
2023-05-09T02:49:31.433Z,101012.88
2023-05-09T02:51:58.808Z,101017.34
2023-05-09T02:54:25.280Z,101010.31
2023-05-09T02:56:51.750Z,101014.34
2023-05-09T02:59:18.140Z,101011.75
2023-05-09T03:01:44.993Z,101009.03
2023-05-09T03:04:11.476Z,101003.47
2023-05-09T03:06:38.015Z,101008.09
2023-05-09T03:09:04.453Z,100998.97
2023-05-09T03:11:31.566Z,100999.16
2023-05-09T03:13:58.108Z,101001.81
2023-05-09T03:16:24.656Z,101001.41
2023-05-09T03:18:51.548Z,100999.56
2023-05-09T03:21:17.958Z,100994.88
2023-05-09T03:23:44.613Z,100992.19
2023-05-09T03:26:10.946Z,100997.31
2023-05-09T03:28:37.692Z,101001.88
2023-05-09T03:31:05.614Z,101002.69
2023-05-09T03:33:32.326Z,101003.34
2023-05-09T03:36:00.753Z,101003.53
2023-05-09T03:38:27.617Z,100997.53
2023-05-09T03:40:54.043Z,101000.03
2023-05-09T03:43:23.062Z,100998.28
2023-05-09T03:45:49.449Z,100995.50
2023-05-09T03:48:19.026Z,100990.38
2023-05-09T03:50:50.051Z,100981.25
2023-05-09T03:53:16.523Z,100981.59
2023-05-09T03:55:45.610Z,100978.09
2023-05-09T03:58:14.770Z,100985.28
2023-05-09T04:00:42.728Z,100974.66
2023-05-09T04:03:15.130Z,100963.91
2023-05-09T04:05:45.724Z,100963.00
2023-05-09T04:08:20.234Z,100974.75
2023-05-09T04:10:46.800Z,100972.91
2023-05-09T04:13:13.679Z,100969.22
2023-05-09T04:15:40.717Z,100959.25
2023-05-09T04:18:07.287Z,100957.53
2023-05-09T04:20:33.864Z,100957.47
2023-05-09T04:23:01.273Z,100959.19
2023-05-09T04:25:29.466Z,100955.66
2023-05-09T04:27:56.658Z,100950.44
2023-05-09T04:30:23.006Z,100953.09
2023-05-09T04:32:49.915Z,100943.19
2023-05-09T04:35:20.330Z,100943.13
2023-05-09T04:37:48.297Z,100942.97
2023-05-09T04:40:14.720Z,100941.25
2023-05-09T04:42:47.845Z,100940.28
2023-05-09T04:45:14.398Z,100943.88
2023-05-09T04:47:41.073Z,100942.03
2023-05-09T04:50:08.021Z,100948.50
2023-05-09T04:52:34.366Z,100943.94
2023-05-09T04:55:01.022Z,100940.22
2023-05-09T04:57:32.288Z,100947.63
2023-05-09T04:59:58.929Z,100943.03
2023-05-09T05:02:25.522Z,100933.28
2023-05-09T05:04:56.123Z,100934.94
2023-05-09T05:07:27.181Z,100938.50
2023-05-09T05:09:53.683Z,100936.06
2023-05-09T05:12:20.084Z,100932.34
2023-05-09T05:14:47.037Z,100927.97
2023-05-09T05:17:18.507Z,100932.59
2023-05-09T05:19:46.204Z,100919.91
2023-05-09T05:22:13.254Z,100920.84
2023-05-09T05:24:42.075Z,100917.16
2023-05-09T05:27:08.857Z,100915.56
2023-05-09T05:29:35.375Z,100917.28
2023-05-09T05:32:01.828Z,100911.75
2023-05-09T05:34:28.312Z,100914.47
2023-05-09T05:36:55.230Z,100901.22
2023-05-09T05:39:21.809Z,100898.47
2023-05-09T05:41:48.238Z,100900.81
2023-05-09T05:44:15.440Z,100898.88
2023-05-09T05:46:42.079Z,100887.88
2023-05-09T05:49:09.192Z,100891.22
2023-05-09T05:51:35.655Z,100895.91
2023-05-09T05:54:03.485Z,100891.94
2023-05-09T05:56:29.970Z,100884.13
2023-05-09T05:58:56.942Z,100887.22
2023-05-09T06:01:23.463Z,100886.69
2023-05-09T06:03:54.682Z,100882.88
2023-05-09T06:06:23.661Z,100877.41
2023-05-09T06:08:50.146Z,100876.13
2023-05-09T06:11:16.728Z,100873.63
2023-05-09T06:13:43.087Z,100868.34
2023-05-09T06:16:19.504Z,100866.44
2023-05-09T06:18:49.373Z,100859.81
2023-05-09T06:21:15.842Z,100852.38
2023-05-09T06:23:51.056Z,100858.16
2023-05-09T06:26:28.439Z,100848.19
2023-05-09T06:28:54.883Z,100845.94
2023-05-09T06:31:21.984Z,100847.81
2023-05-09T06:33:48.845Z,100843.38
2023-05-09T06:36:15.290Z,100835.91
2023-05-09T06:38:41.784Z,100826.63
2023-05-09T06:41:08.152Z,100821.66
2023-05-09T06:43:34.571Z,100823.03
2023-05-09T06:46:01.021Z,100818.56
2023-05-09T06:48:27.414Z,100814.75
2023-05-09T06:50:53.762Z,100816.50
2023-05-09T06:53:20.109Z,100813.94
2023-05-09T06:55:46.538Z,100815.47
2023-05-09T06:58:12.940Z,100809.25
2023-05-09T07:00:39.367Z,100805.03
2023-05-09T07:03:07.688Z,100798.34
2023-05-09T07:05:34.487Z,100804.72
2023-05-09T07:08:01.109Z,100795.88
2023-05-09T07:10:27.763Z,100789.84
2023-05-09T07:12:54.175Z,100795.19
2023-05-09T07:15:29.136Z,100787.63
2023-05-09T07:18:06.635Z,100794.28
2023-05-09T07:20:33.103Z,100787.78
2023-05-09T07:22:59.909Z,100790.06
2023-05-09T07:25:26.332Z,100791.03
2023-05-09T07:27:52.672Z,100780.00
2023-05-09T07:30:19.079Z,100774.00
2023-05-09T07:32:45.520Z,100773.38
2023-05-09T07:35:12.201Z,100774.31
2023-05-09T07:37:38.851Z,100770.47
2023-05-09T07:40:06.168Z,100775.59
2023-05-09T07:42:35.764Z,100773.59
2023-05-09T07:45:04.463Z,100772.44
2023-05-09T07:47:30.900Z,100767.69
2023-05-09T07:49:57.305Z,100766.69
2023-05-09T07:52:23.838Z,100757.34
2023-05-09T07:54:50.333Z,100756.06
2023-05-09T07:57:16.701Z,100757.72
2023-05-09T07:59:43.087Z,100750.00
2023-05-09T08:02:09.599Z,100747.28
2023-05-09T08:04:41.234Z,100743.03
2023-05-09T08:07:09.155Z,100741.94
2023-05-09T08:09:35.956Z,100739.63
2023-05-09T08:12:02.465Z,100726.50
2023-05-09T08:14:28.898Z,100724.28
2023-05-09T08:16:55.300Z,100724.41
2023-05-09T08:19:23.566Z,100720.06
2023-05-09T08:21:49.996Z,100714.25
2023-05-09T08:24:16.338Z,100696.59
2023-05-09T08:26:42.750Z,100702.09
2023-05-09T08:29:09.152Z,100699.97
2023-05-09T08:31:35.616Z,100693.19
2023-05-09T08:34:02.319Z,100699.41
2023-05-09T08:36:28.678Z,100697.53
2023-05-09T08:38:55.175Z,100697.50
2023-05-09T08:41:21.877Z,100698.19
2023-05-09T08:43:48.256Z,100688.09
2023-05-09T08:46:14.707Z,100691.44
2023-05-09T08:48:41.135Z,100685.94
2023-05-09T08:53:34.026Z,100683.31
2023-05-09T08:56:01.776Z,100676.50
2023-05-09T08:58:28.488Z,100670.31
2023-05-09T09:00:55.648Z,100676.13
2023-05-09T09:03:22.075Z,100668.78
2023-05-09T09:05:49.378Z,100665.16
2023-05-09T09:08:16.787Z,100655.19
2023-05-09T09:10:47.071Z,100648.22
2023-05-09T09:13:13.681Z,100650.63
2023-05-09T09:15:40.575Z,100643.31
2023-05-09T09:18:07.950Z,100646.66
2023-05-09T09:20:34.726Z,100644.72
2023-05-09T09:23:02.025Z,100644.81
2023-05-09T09:25:28.417Z,100647.31
2023-05-09T09:27:54.939Z,100640.47
2023-05-09T09:33:05.770Z,100641.72
2023-05-09T09:35:41.408Z,100639.88
2023-05-09T09:38:07.863Z,100624.47
2023-05-09T09:40:34.272Z,100635.59
2023-05-09T09:43:00.716Z,100628.81
2023-05-09T09:45:27.860Z,100622.91
2023-05-09T09:47:54.687Z,100619.59
2023-05-09T09:50:23.385Z,100617.84
2023-05-09T09:52:50.184Z,100611.66
2023-05-09T09:55:16.610Z,100613.88
2023-05-09T09:57:45.776Z,100604.50
2023-05-09T10:00:13.208Z,100599.66
2023-05-09T10:02:39.868Z,100606.47
2023-05-09T10:05:06.730Z,100607.19
2023-05-09T10:07:33.194Z,100594.19
2023-05-09T10:10:00.771Z,100591.97
2023-05-09T10:12:27.126Z,100588.63
2023-05-09T10:14:53.477Z,100592.53
2023-05-09T10:17:19.919Z,100589.88
2023-05-09T10:19:46.547Z,100579.31
2023-05-09T10:22:13.249Z,100583.09
2023-05-09T10:24:39.666Z,100577.78
2023-05-09T10:27:06.015Z,100573.66
2023-05-09T10:29:32.381Z,100570.88
2023-05-09T10:31:59.071Z,100561.25
2023-05-09T10:34:26.010Z,100564.16
2023-05-09T10:36:52.448Z,100570.06
2023-05-09T10:39:18.788Z,100556.84
2023-05-09T10:41:45.134Z,100552.53
2023-05-09T10:44:11.483Z,100546.16
2023-05-09T10:46:37.913Z,100547.84
2023-05-09T10:49:04.465Z,100538.84
2023-05-09T10:51:30.884Z,100535.00
2023-05-09T10:53:57.922Z,100534.31
2023-05-09T10:56:24.322Z,100535.28
2023-05-09T10:58:50.700Z,100522.97
2023-05-09T11:01:17.722Z,100526.41
2023-05-09T11:03:44.260Z,100520.78
2023-05-09T11:06:10.667Z,100521.13
2023-05-09T11:08:37.062Z,100514.06
2023-05-09T11:11:03.497Z,100511.78
2023-05-09T11:13:30.010Z,100502.03
2023-05-09T11:15:56.482Z,100505.88
2023-05-09T11:18:22.883Z,100495.75
2023-05-09T11:20:49.297Z,100491.44
2023-05-09T11:23:17.354Z,100486.38
2023-05-09T11:25:43.782Z,100481.41
2023-05-09T11:28:11.770Z,100466.41
2023-05-09T11:30:38.209Z,100480.16
2023-05-09T11:33:06.829Z,100474.50
2023-05-09T11:35:33.528Z,100468.41
2023-05-09T11:38:00.316Z,100474.13
2023-05-09T11:40:26.789Z,100464.78
2023-05-09T11:42:58.378Z,100458.94
2023-05-09T11:45:25.248Z,100455.16
2023-05-09T11:47:51.712Z,100450.28
2023-05-09T11:50:19.288Z,100443.41
2023-05-09T11:52:45.730Z,100438.16
2023-05-09T11:55:12.851Z,100433.09
2023-05-09T11:57:39.406Z,100429.25
2023-05-09T12:00:06.564Z,100432.28
2023-05-09T12:02:34.839Z,100418.91
2023-05-09T12:05:01.325Z,100422.97
2023-05-09T12:07:27.701Z,100409.34
2023-05-09T12:09:54.151Z,100407.03
2023-05-09T12:12:21.621Z,100409.00
2023-05-09T12:14:48.246Z,100402.53
2023-05-09T12:17:14.676Z,100402.19
2023-05-09T12:19:41.043Z,100398.22
2023-05-09T12:22:07.656Z,100400.09
2023-05-09T12:24:34.074Z,100393.63
2023-05-09T12:27:00.496Z,100389.03
2023-05-09T12:29:26.924Z,100393.13
2023-05-09T12:31:53.476Z,100386.59
2023-05-09T12:34:20.133Z,100389.13
2023-05-09T12:36:53.480Z,100369.28
2023-05-09T12:39:21.936Z,100371.78
2023-05-09T12:42:00.493Z,100370.75
2023-05-09T12:44:29.666Z,100367.44
2023-05-09T12:46:56.618Z,100364.88
2023-05-09T12:49:23.043Z,100373.94
2023-05-09T12:51:50.163Z,100380.81
2023-05-09T12:54:16.512Z,100382.47
2023-05-09T12:56:42.864Z,100391.97
2023-05-09T12:59:09.403Z,100389.00
2023-05-09T13:01:35.903Z,100389.81
2023-05-09T13:04:02.343Z,100388.22
2023-05-09T13:06:28.732Z,100398.63
2023-05-09T13:08:55.121Z,100399.03
2023-05-09T13:11:21.526Z,100394.03
2023-05-09T13:13:47.898Z,100404.78
2023-05-09T13:16:15.891Z,100410.94
2023-05-09T13:18:43.975Z,100399.59
2023-05-09T13:21:10.382Z,100392.31
2023-05-09T13:23:36.850Z,100401.75
2023-05-09T13:26:03.563Z,100387.16
2023-05-09T13:28:29.964Z,100379.06
2023-05-09T13:30:56.379Z,100382.75
2023-05-09T13:33:26.269Z,100383.00
2023-05-09T13:35:53.249Z,100373.84
2023-05-09T13:38:19.647Z,100379.34
2023-05-09T13:40:46.308Z,100378.19
2023-05-09T13:43:12.666Z,100370.38
2023-05-09T13:45:39.155Z,100366.41
2023-05-09T13:48:05.605Z,100377.16
2023-05-09T13:50:32.031Z,100382.34
2023-05-09T13:52:58.663Z,100376.31
2023-05-09T13:55:26.433Z,100372.91
2023-05-09T13:57:52.893Z,100373.81
2023-05-09T14:00:21.318Z,100360.06
2023-05-09T14:02:48.265Z,100371.28
2023-05-09T14:05:15.861Z,100362.56
2023-05-09T14:07:42.752Z,100362.16
2023-05-09T14:10:11.865Z,100362.38
2023-05-09T14:12:44.324Z,100352.84
2023-05-09T14:15:11.241Z,100353.16
2023-05-09T14:17:37.876Z,100346.88
2023-05-09T14:20:04.257Z,100345.25
2023-05-09T14:22:30.747Z,100344.72
2023-05-09T14:24:57.544Z,100334.25
2023-05-09T14:27:23.929Z,100338.69
2023-05-09T14:29:50.399Z,100338.16
2023-05-09T14:32:17.352Z,100340.16
2023-05-09T14:34:45.672Z,100337.56
2023-05-09T14:37:15.147Z,100331.44
2023-05-09T14:39:42.505Z,100320.72
2023-05-09T14:42:10.364Z,100326.75
2023-05-09T14:44:36.788Z,100328.78
2023-05-09T14:47:03.262Z,100334.72
2023-05-09T14:49:29.685Z,100332.78
2023-05-09T14:51:56.158Z,100329.00
2023-05-09T14:54:22.723Z,100313.31
2023-05-09T14:56:49.115Z,100319.44
2023-05-09T14:59:15.875Z,100320.84
2023-05-09T15:01:42.252Z,100332.59
2023-05-09T15:04:09.404Z,100328.16
2023-05-09T15:06:35.887Z,100328.59
2023-05-09T15:09:02.715Z,100324.41
2023-05-09T15:11:33.475Z,100326.88
2023-05-09T15:14:09.983Z,100323.63
2023-05-09T15:16:36.429Z,100323.34
2023-05-09T15:19:04.413Z,100314.00
2023-05-09T15:21:33.264Z,100305.25
2023-05-09T15:23:59.745Z,100312.00
2023-05-09T15:26:26.330Z,100307.06
2023-05-09T15:28:52.753Z,100305.53
2023-05-09T15:31:23.328Z,100296.06
2023-05-09T15:33:49.755Z,100292.31
2023-05-09T15:36:16.319Z,100294.13
2023-05-09T15:38:42.798Z,100296.22
2023-05-09T15:41:09.349Z,100292.94
2023-05-09T15:43:35.719Z,100285.31
2023-05-09T15:46:02.910Z,100286.81
2023-05-09T15:48:29.422Z,100294.31
2023-05-09T15:50:55.833Z,100286.66
2023-05-09T15:53:23.338Z,100283.72
2023-05-09T15:55:50.172Z,100277.28
2023-05-09T15:58:16.609Z,100278.25
2023-05-09T16:00:43.143Z,100275.47
2023-05-09T16:03:09.707Z,100265.81
2023-05-09T16:05:36.206Z,100267.16
2023-05-09T16:08:02.933Z,100268.53
2023-05-09T16:10:29.583Z,100270.22
2023-05-09T16:12:56.032Z,100270.91
2023-05-09T16:15:22.449Z,100264.41
2023-05-09T16:17:48.865Z,100268.34
2023-05-09T16:20:15.614Z,100271.19
2023-05-09T16:22:42.456Z,100264.94
2023-05-09T16:25:09.410Z,100266.03
2023-05-09T16:27:35.837Z,100266.41
2023-05-09T16:30:02.275Z,100271.84
2023-05-09T16:32:28.698Z,100267.31
2023-05-09T16:34:55.930Z,100268.09
2023-05-09T16:37:22.328Z,100273.75
2023-05-09T16:39:48.900Z,100264.91
2023-05-09T16:42:15.254Z,100262.44
2023-05-09T16:44:41.700Z,100251.44
2023-05-09T16:47:08.070Z,100253.63
2023-05-09T16:49:34.450Z,100250.22
2023-05-09T16:52:00.874Z,100250.00
2023-05-09T16:54:27.253Z,100252.91
2023-05-09T16:56:54.057Z,100256.00
2023-05-09T16:59:20.797Z,100250.00
2023-05-09T17:01:47.598Z,100253.25
2023-05-09T17:04:14.241Z,100260.34
2023-05-09T17:06:40.821Z,100253.31
2023-05-09T17:09:07.594Z,100257.41
2023-05-09T17:11:33.970Z,100254.00
2023-05-09T17:14:00.962Z,100242.69
2023-05-09T17:16:27.596Z,100246.38
2023-05-09T17:18:54.060Z,100242.31
2023-05-09T17:21:20.516Z,100244.19
2023-05-09T17:23:46.900Z,100246.16
2023-05-09T17:26:13.263Z,100238.97
2023-05-09T17:28:39.656Z,100241.53
2023-05-09T17:31:06.546Z,100243.84
2023-05-09T17:33:33.084Z,100238.13
2023-05-09T17:36:00.038Z,100236.34
2023-05-09T17:38:26.412Z,100245.47
2023-05-09T17:40:52.732Z,100236.84
2023-05-09T17:43:19.142Z,100226.66
2023-05-09T17:45:46.303Z,100230.94
2023-05-09T17:48:13.831Z,100225.53
2023-05-09T17:50:40.181Z,100236.31
2023-05-09T17:53:08.794Z,100236.63
2023-05-09T17:55:35.255Z,100223.25
2023-05-09T17:58:01.841Z,100222.13
2023-05-09T18:00:29.174Z,100221.81
2023-05-09T18:02:56.598Z,100220.19
2023-05-09T18:05:24.166Z,100229.75
2023-05-09T18:07:51.452Z,100223.47
2023-05-09T18:10:18.991Z,100215.44
2023-05-09T18:12:45.803Z,100207.63
2023-05-09T18:15:12.205Z,100209.22
2023-05-09T18:17:38.680Z,100214.06
2023-05-09T18:20:05.052Z,100210.81
2023-05-09T18:22:32.260Z,100215.16
2023-05-09T18:24:58.616Z,100208.53
2023-05-09T18:27:25.076Z,100204.53
2023-05-09T18:29:51.558Z,100203.94
2023-05-09T18:32:18.500Z,100201.25
2023-05-09T18:34:45.258Z,100203.44
2023-05-09T18:37:11.870Z,100201.84
2023-05-09T18:39:38.349Z,100196.19
2023-05-09T18:42:06.382Z,100195.00
2023-05-09T18:44:32.785Z,100204.66
2023-05-09T18:46:59.398Z,100206.47
2023-05-09T18:49:26.376Z,100204.22
2023-05-09T18:51:53.385Z,100209.41
2023-05-09T18:54:20.633Z,100205.28
2023-05-09T18:56:47.348Z,100205.53
2023-05-09T18:59:16.200Z,100208.69
2023-05-09T19:01:43.919Z,100208.22
2023-05-09T19:04:10.341Z,100194.94
2023-05-09T19:06:37.060Z,100201.00
2023-05-09T19:09:04.417Z,100200.75
2023-05-09T19:11:30.883Z,100202.72
2023-05-09T19:13:57.354Z,100201.25
2023-05-09T19:16:24.761Z,100196.72
2023-05-09T19:18:51.519Z,100207.41
2023-05-09T19:21:19.432Z,100206.28
2023-05-09T19:23:49.373Z,100212.06
2023-05-09T19:26:15.956Z,100204.59
2023-05-09T19:28:42.692Z,100195.97
2023-05-09T19:31:09.853Z,100196.50
2023-05-09T19:33:36.440Z,100205.28
2023-05-09T19:36:02.869Z,100203.88
2023-05-09T19:38:29.370Z,100198.88
2023-05-09T19:40:56.202Z,100202.53
2023-05-09T19:43:23.008Z,100201.66
2023-05-09T19:45:49.723Z,100202.63
2023-05-09T19:48:16.235Z,100202.75
2023-05-09T19:50:42.701Z,100205.66
2023-05-09T19:53:09.024Z,100211.75
2023-05-09T19:55:35.499Z,100204.53
2023-05-09T19:58:01.911Z,100209.97
2023-05-09T20:00:28.277Z,100221.81
2023-05-09T20:02:54.741Z,100212.63
2023-05-09T20:05:21.244Z,100219.00
2023-05-09T20:07:47.630Z,100214.19
2023-05-09T20:10:15.582Z,100209.78
2023-05-09T20:12:42.112Z,100212.34
2023-05-09T20:15:08.817Z,100211.72
2023-05-09T20:17:35.317Z,100204.34
2023-05-09T20:20:01.808Z,100201.31
2023-05-09T20:22:28.212Z,100201.41
2023-05-09T20:24:55.134Z,100200.38
2023-05-09T20:27:21.986Z,100200.13
2023-05-09T20:29:48.683Z,100208.66
2023-05-09T20:32:15.113Z,100205.09
2023-05-09T20:34:41.809Z,100195.97
2023-05-09T20:37:08.955Z,100195.53
2023-05-09T20:39:35.477Z,100195.47
2023-05-09T20:42:02.457Z,100201.72
2023-05-09T20:44:29.171Z,100197.13
2023-05-09T20:46:56.203Z,100194.88
2023-05-09T20:49:22.968Z,100197.06
2023-05-09T20:51:49.512Z,100192.84
2023-05-09T20:54:16.977Z,100191.19
2023-05-09T20:56:46.435Z,100193.28
2023-05-09T20:59:12.891Z,100195.50
2023-05-09T21:01:40.206Z,100197.06
2023-05-09T21:04:08.350Z,100186.31
2023-05-09T21:06:34.741Z,100189.06
2023-05-09T21:09:01.074Z,100185.91
2023-05-09T21:11:27.496Z,100190.84
2023-05-09T21:13:54.271Z,100203.13
2023-05-09T21:16:20.672Z,100192.84
2023-05-09T21:18:47.011Z,100193.66
2023-05-09T21:21:13.825Z,100187.34
2023-05-09T21:23:40.186Z,100194.63
2023-05-09T21:26:06.999Z,100189.03
2023-05-09T21:28:33.550Z,100191.97
2023-05-09T21:31:01.661Z,100191.44
2023-05-09T21:33:28.086Z,100185.91
2023-05-09T21:35:54.722Z,100184.47
2023-05-09T21:38:21.152Z,100189.88
2023-05-09T21:40:47.540Z,100193.63
2023-05-09T21:43:13.961Z,100189.44
2023-05-09T21:45:40.434Z,100189.22
2023-05-09T21:48:07.103Z,100186.22
2023-05-09T21:50:33.552Z,100185.81
2023-05-09T21:53:03.765Z,100184.63
2023-05-09T21:55:30.196Z,100190.53
2023-05-09T21:57:56.611Z,100188.28
2023-05-09T22:00:22.964Z,100176.53
2023-05-09T22:02:50.533Z,100183.31
2023-05-09T22:05:19.344Z,100174.00
2023-05-09T22:07:45.821Z,100184.69
2023-05-09T22:10:12.254Z,100178.22
2023-05-09T22:12:38.611Z,100182.06
2023-05-09T22:15:05.007Z,100180.19
2023-05-09T22:17:31.396Z,100176.50
2023-05-09T22:20:00.286Z,100181.09
2023-05-09T22:22:29.317Z,100180.13
2023-05-09T22:24:56.020Z,100179.78
2023-05-09T22:27:22.967Z,100172.78
2023-05-09T22:29:49.558Z,100169.00
2023-05-09T22:32:16.458Z,100181.97
2023-05-09T22:34:42.869Z,100179.03
2023-05-09T22:37:09.988Z,100175.78
2023-05-09T22:39:36.412Z,100179.94
2023-05-09T22:42:03.988Z,100179.97
2023-05-09T22:44:30.452Z,100182.94
2023-05-09T22:46:59.213Z,100178.84
2023-05-09T22:49:25.898Z,100180.25
2023-05-09T22:51:52.281Z,100178.03
2023-05-09T22:54:24.944Z,100179.84
2023-05-09T22:56:51.375Z,100182.56
2023-05-09T22:59:17.743Z,100180.09
2023-05-09T23:01:44.385Z,100180.00
2023-05-09T23:04:13.992Z,100185.91
2023-05-09T23:06:43.794Z,100185.44
2023-05-09T23:09:10.864Z,100167.22
2023-05-09T23:11:37.583Z,100177.88
2023-05-09T23:14:03.964Z,100175.84
2023-05-09T23:16:30.529Z,100176.59
2023-05-09T23:18:57.302Z,100181.22
2023-05-09T23:21:26.071Z,100178.81
2023-05-09T23:23:53.008Z,100178.09
2023-05-09T23:26:19.368Z,100172.69
2023-05-09T23:28:45.878Z,100176.13
2023-05-09T23:31:12.316Z,100175.13
2023-05-09T23:33:40.152Z,100176.84
2023-05-09T23:36:06.503Z,100181.69
2023-05-09T23:38:32.861Z,100185.28
2023-05-09T23:41:00.047Z,100179.28
2023-05-09T23:43:26.515Z,100185.38
2023-05-09T23:45:53.921Z,100179.72
2023-05-09T23:48:20.329Z,100187.41
2023-05-09T23:50:49.909Z,100181.56
2023-05-09T23:53:16.612Z,100179.44
2023-05-09T23:55:42.986Z,100178.13
2023-05-09T23:58:09.346Z,100190.38
